Current Weather

North Auxiliary Airfield Edwa

North Auxiliary Airfield Edwa, California (K9L2)

Report from: Thursday, July 18, 2024 5:55 AM PDT
Current time: Thursday, July 18, 2024 6:58 AM PDT

Nearby weather – Weather history – Daily summaries
Weather forecast

Temperature23.2°C (73.8°F)
Dew point8.5°C (47.3°F)
Winds Calm
Visibility10 mi. (16.1 km)
Clouds Scattered clouds 16,000 ft. (4,877 m)
Altimeter29.97 in.Hg (1015 mB)
Relative humidity39 %
Density altitude1,159 ft. (353 m)
Sea-level pressure101.2 kPa (1012 mB, 29.88 in.Hg)
Remarks Fully automated report
Automated weather observing station with precipitation discriminator
Flight conditions Visual Meteorological Conditions
Raw dataK9L2 181255Z AUTO 00000KT 10SM SCT160 23/09 A2997 RMK AO2 SLP119 T02320085
An error has occurred. This application may no longer respond until reloaded. Reload 🗙